sensor_id;sensor_type;location;lat;lon;timestamp;P1;durP1;ratioP1;P2;durP2;ratioP2
1719;SDS011;857;52.872;9.692;2023-05-07T00:02:26;12.80;;;9.40;;
1719;SDS011;857;52.872;9.692;2023-05-07T00:04:54;13.33;;;10.07;;
1719;SDS011;857;52.872;9.692;2023-05-07T00:07:23;14.50;;;9.97;;
1719;SDS011;857;52.872;9.692;2023-05-07T00:09:50;13.23;;;9.67;;
1719;SDS011;857;52.872;9.692;2023-05-07T00:12:18;16.30;;;10.60;;
1719;SDS011;857;52.872;9.692;2023-05-07T00:14:47;14.90;;;9.83;;
1719;SDS011;857;52.872;9.692;2023-05-07T00:17:15;9.10;;;6.90;;
1719;SDS011;857;52.872;9.692;2023-05-07T00:19:42;11.67;;;8.90;;
1719;SDS011;857;52.872;9.692;2023-05-07T00:22:10;14.70;;;9.47;;
1719;SDS011;857;52.872;9.692;2023-05-07T00:24:37;15.37;;;9.20;;
1719;SDS011;857;52.872;9.692;2023-05-07T00:27:05;12.53;;;9.30;;
1719;SDS011;857;52.872;9.692;2023-05-07T00:29:33;16.83;;;11.43;;
1719;SDS011;857;52.872;9.692;2023-05-07T00:32:03;15.47;;;10.20;;
1719;SDS011;857;52.872;9.692;2023-05-07T00:34:31;15.47;;;10.50;;
1719;SDS011;857;52.872;9.692;2023-05-07T00:36:59;12.63;;;8.23;;
1719;SDS011;857;52.872;9.692;2023-05-07T00:39:26;13.37;;;9.90;;
1719;SDS011;857;52.872;9.692;2023-05-07T00:41:54;14.47;;;9.30;;
1719;SDS011;857;52.872;9.692;2023-05-07T00:44:22;14.23;;;9.57;;
1719;SDS011;857;52.872;9.692;2023-05-07T00:46:50;10.17;;;7.30;;
1719;SDS011;857;52.872;9.692;2023-05-07T00:49:30;14.10;;;9.20;;
1719;SDS011;857;52.872;9.692;2023-05-07T00:51:59;8.53;;;6.07;;
1719;SDS011;857;52.872;9.692;2023-05-07T00:54:27;11.30;;;7.87;;
1719;SDS011;857;52.872;9.692;2023-05-07T00:56:55;11.63;;;8.37;;
1719;SDS011;857;52.872;9.692;2023-05-07T00:59:23;10.10;;;7.90;;
1719;SDS011;857;52.872;9.692;2023-05-07T01:01:51;9.40;;;6.73;;
1719;SDS011;857;52.872;9.692;2023-05-07T01:04:19;14.03;;;9.53;;
1719;SDS011;857;52.872;9.692;2023-05-07T01:06:48;15.63;;;10.83;;
1719;SDS011;857;52.872;9.692;2023-05-07T01:09:16;11.73;;;7.87;;
1719;SDS011;857;52.872;9.692;2023-05-07T01:11:44;14.10;;;8.90;;
1719;SDS011;857;52.872;9.692;2023-05-07T01:14:11;7.40;;;6.43;;
1719;SDS011;857;52.872;9.692;2023-05-07T01:16:39;12.57;;;9.67;;
1719;SDS011;857;52.872;9.692;2023-05-07T01:19:08;10.33;;;7.03;;
1719;SDS011;857;52.872;9.692;2023-05-07T01:21:36;12.20;;;7.70;;
1719;SDS011;857;52.872;9.692;2023-05-07T01:24:10;8.07;;;6.10;;
1719;SDS011;857;52.872;9.692;2023-05-07T01:26:38;10.40;;;7.57;;
1719;SDS011;857;52.872;9.692;2023-05-07T01:29:06;10.50;;;8.00;;
1719;SDS011;857;52.872;9.692;2023-05-07T01:31:34;12.87;;;10.20;;
1719;SDS011;857;52.872;9.692;2023-05-07T01:34:02;14.30;;;9.70;;
1719;SDS011;857;52.872;9.692;2023-05-07T01:36:31;11.57;;;8.57;;
1719;SDS011;857;52.872;9.692;2023-05-07T01:39:00;12.73;;;8.27;;
1719;SDS011;857;52.872;9.692;2023-05-07T01:41:29;15.30;;;10.20;;
1719;SDS011;857;52.872;9.692;2023-05-07T01:43:57;12.90;;;9.10;;
1719;SDS011;857;52.872;9.692;2023-05-07T01:46:26;7.87;;;6.40;;
1719;SDS011;857;52.872;9.692;2023-05-07T01:48:54;14.20;;;10.00;;
1719;SDS011;857;52.872;9.692;2023-05-07T01:51:22;10.03;;;8.10;;
1719;SDS011;857;52.872;9.692;2023-05-07T01:53:51;11.40;;;8.03;;
1719;SDS011;857;52.872;9.692;2023-05-07T01:56:20;13.80;;;10.50;;
1719;SDS011;857;52.872;9.692;2023-05-07T01:58:49;13.43;;;9.03;;
1719;SDS011;857;52.872;9.692;2023-05-07T02:01:17;12.10;;;8.33;;
1719;SDS011;857;52.872;9.692;2023-05-07T02:03:46;5.97;;;4.93;;
1719;SDS011;857;52.872;9.692;2023-05-07T02:06:20;12.17;;;8.90;;
1719;SDS011;857;52.872;9.692;2023-05-07T02:08:48;15.80;;;9.43;;
1719;SDS011;857;52.872;9.692;2023-05-07T02:11:16;12.53;;;9.33;;
1719;SDS011;857;52.872;9.692;2023-05-07T02:13:44;13.90;;;8.77;;
1719;SDS011;857;52.872;9.692;2023-05-07T02:16:13;9.43;;;7.23;;
1719;SDS011;857;52.872;9.692;2023-05-07T02:18:40;11.63;;;8.37;;
1719;SDS011;857;52.872;9.692;2023-05-07T02:21:08;9.73;;;7.30;;
1719;SDS011;857;52.872;9.692;2023-05-07T02:23:36;9.37;;;6.13;;
1719;SDS011;857;52.872;9.692;2023-05-07T02:26:04;11.03;;;7.47;;
1719;SDS011;857;52.872;9.692;2023-05-07T02:28:31;7.30;;;6.00;;
1719;SDS011;857;52.872;9.692;2023-05-07T02:31:02;11.87;;;6.80;;
1719;SDS011;857;52.872;9.692;2023-05-07T02:33:32;7.00;;;5.50;;
1719;SDS011;857;52.872;9.692;2023-05-07T02:36:05;8.13;;;6.10;;
1719;SDS011;857;52.872;9.692;2023-05-07T02:38:34;8.70;;;6.20;;
1719;SDS011;857;52.872;9.692;2023-05-07T02:41:02;7.10;;;5.97;;
1719;SDS011;857;52.872;9.692;2023-05-07T02:43:30;7.83;;;6.03;;
1719;SDS011;857;52.872;9.692;2023-05-07T02:46:01;8.90;;;6.50;;
1719;SDS011;857;52.872;9.692;2023-05-07T02:48:34;8.43;;;5.90;;
1719;SDS011;857;52.872;9.692;2023-05-07T02:51:02;8.30;;;6.23;;
1719;SDS011;857;52.872;9.692;2023-05-07T02:53:31;10.40;;;7.60;;
1719;SDS011;857;52.872;9.692;2023-05-07T02:56:00;10.53;;;6.73;;
1719;SDS011;857;52.872;9.692;2023-05-07T02:58:28;5.60;;;4.57;;
1719;SDS011;857;52.872;9.692;2023-05-07T03:00:57;8.57;;;6.50;;
1719;SDS011;857;52.872;9.692;2023-05-07T03:03:55;10.87;;;7.50;;
1719;SDS011;857;52.872;9.692;2023-05-07T03:06:23;13.37;;;8.30;;
1719;SDS011;857;52.872;9.692;2023-05-07T03:08:51;12.47;;;7.80;;
1719;SDS011;857;52.872;9.692;2023-05-07T03:11:19;10.60;;;7.90;;
1719;SDS011;857;52.872;9.692;2023-05-07T03:13:47;10.43;;;6.87;;
1719;SDS011;857;52.872;9.692;2023-05-07T03:16:17;6.93;;;5.80;;
1719;SDS011;857;52.872;9.692;2023-05-07T03:18:45;9.47;;;6.37;;
1719;SDS011;857;52.872;9.692;2023-05-07T03:21:14;9.77;;;7.23;;
1719;SDS011;857;52.872;9.692;2023-05-07T03:23:42;9.40;;;6.90;;
1719;SDS011;857;52.872;9.692;2023-05-07T03:26:09;6.57;;;4.77;;
1719;SDS011;857;52.872;9.692;2023-05-07T03:28:37;8.93;;;6.57;;
1719;SDS011;857;52.872;9.692;2023-05-07T03:31:09;10.87;;;8.17;;
1719;SDS011;857;52.872;9.692;2023-05-07T03:33:38;10.20;;;6.60;;
1719;SDS011;857;52.872;9.692;2023-05-07T03:36:09;9.80;;;7.60;;
1719;SDS011;857;52.872;9.692;2023-05-07T03:38:38;7.30;;;6.00;;
1719;SDS011;857;52.872;9.692;2023-05-07T03:41:05;8.43;;;6.40;;
1719;SDS011;857;52.872;9.692;2023-05-07T03:43:33;9.60;;;7.17;;
1719;SDS011;857;52.872;9.692;2023-05-07T03:46:06;9.83;;;6.93;;
1719;SDS011;857;52.872;9.692;2023-05-07T03:48:33;6.70;;;5.20;;
1719;SDS011;857;52.872;9.692;2023-05-07T03:51:01;8.43;;;5.97;;
1719;SDS011;857;52.872;9.692;2023-05-07T03:53:32;9.10;;;5.30;;
1719;SDS011;857;52.872;9.692;2023-05-07T03:56:01;6.50;;;5.00;;
1719;SDS011;857;52.872;9.692;2023-05-07T03:58:33;5.93;;;4.70;;
1719;SDS011;857;52.872;9.692;2023-05-07T04:01:06;8.30;;;6.13;;
1719;SDS011;857;52.872;9.692;2023-05-07T04:03:34;8.20;;;6.20;;
1719;SDS011;857;52.872;9.692;2023-05-07T04:06:02;9.70;;;7.07;;
1719;SDS011;857;52.872;9.692;2023-05-07T04:08:33;7.53;;;6.20;;
1719;SDS011;857;52.872;9.692;2023-05-07T04:11:02;10.17;;;6.70;;
1719;SDS011;857;52.872;9.692;2023-05-07T04:13:32;7.70;;;6.10;;
1719;SDS011;857;52.872;9.692;2023-05-07T04:16:02;8.30;;;6.50;;
1719;SDS011;857;52.872;9.692;2023-05-07T04:18:31;7.60;;;6.03;;
1719;SDS011;857;52.872;9.692;2023-05-07T04:20:59;6.23;;;5.20;;
1719;SDS011;857;52.872;9.692;2023-05-07T04:23:27;5.50;;;4.47;;
1719;SDS011;857;52.872;9.692;2023-05-07T04:25:57;7.17;;;6.00;;
1719;SDS011;857;52.872;9.692;2023-05-07T04:28:33;6.77;;;5.23;;
1719;SDS011;857;52.872;9.692;2023-05-07T04:31:01;5.23;;;4.40;;
1719;SDS011;857;52.872;9.692;2023-05-07T04:33:31;7.83;;;6.67;;
1719;SDS011;857;52.872;9.692;2023-05-07T04:36:01;8.27;;;6.67;;
1719;SDS011;857;52.872;9.692;2023-05-07T04:38:30;7.60;;;6.10;;
1719;SDS011;857;52.872;9.692;2023-05-07T04:41:02;5.77;;;4.73;;
1719;SDS011;857;52.872;9.692;2023-05-07T04:43:33;5.50;;;4.70;;
1719;SDS011;857;52.872;9.692;2023-05-07T04:46:01;7.17;;;5.80;;
1719;SDS011;857;52.872;9.692;2023-05-07T04:48:30;7.33;;;5.50;;
1719;SDS011;857;52.872;9.692;2023-05-07T04:50:59;7.47;;;6.03;;
1719;SDS011;857;52.872;9.692;2023-05-07T04:53:27;6.70;;;5.03;;
1719;SDS011;857;52.872;9.692;2023-05-07T04:55:56;8.83;;;6.43;;
1719;SDS011;857;52.872;9.692;2023-05-07T04:58:26;5.70;;;5.10;;
1719;SDS011;857;52.872;9.692;2023-05-07T05:00:58;4.40;;;3.90;;
1719;SDS011;857;52.872;9.692;2023-05-07T05:03:26;6.97;;;5.77;;
1719;SDS011;857;52.872;9.692;2023-05-07T05:05:54;12.00;;;6.73;;
1719;SDS011;857;52.872;9.692;2023-05-07T05:08:23;8.53;;;5.53;;
1719;SDS011;857;52.872;9.692;2023-05-07T05:10:51;6.00;;;5.40;;
1719;SDS011;857;52.872;9.692;2023-05-07T05:13:21;6.70;;;5.63;;
1719;SDS011;857;52.872;9.692;2023-05-07T05:15:49;6.33;;;4.87;;
1719;SDS011;857;52.872;9.692;2023-05-07T05:18:18;8.90;;;7.00;;
1719;SDS011;857;52.872;9.692;2023-05-07T05:20:46;5.63;;;4.60;;
1719;SDS011;857;52.872;9.692;2023-05-07T05:23:14;9.43;;;6.80;;
1719;SDS011;857;52.872;9.692;2023-05-07T05:25:43;7.60;;;4.90;;
1719;SDS011;857;52.872;9.692;2023-05-07T05:28:13;7.33;;;5.30;;
1719;SDS011;857;52.872;9.692;2023-05-07T05:30:41;7.43;;;5.83;;
1719;SDS011;857;52.872;9.692;2023-05-07T05:33:08;5.30;;;4.40;;
1719;SDS011;857;52.872;9.692;2023-05-07T05:35:37;6.50;;;5.43;;
1719;SDS011;857;52.872;9.692;2023-05-07T05:38:10;6.87;;;6.23;;
1719;SDS011;857;52.872;9.692;2023-05-07T05:40:39;5.80;;;4.73;;
1719;SDS011;857;52.872;9.692;2023-05-07T05:43:07;7.90;;;5.10;;
1719;SDS011;857;52.872;9.692;2023-05-07T05:45:37;7.30;;;6.03;;
1719;SDS011;857;52.872;9.692;2023-05-07T05:48:05;5.57;;;4.87;;
1719;SDS011;857;52.872;9.692;2023-05-07T05:50:34;4.77;;;3.70;;
1719;SDS011;857;52.872;9.692;2023-05-07T05:53:04;9.67;;;6.27;;
1719;SDS011;857;52.872;9.692;2023-05-07T05:55:33;8.90;;;6.53;;
1719;SDS011;857;52.872;9.692;2023-05-07T05:58:01;6.77;;;5.20;;
1719;SDS011;857;52.872;9.692;2023-05-07T06:00:30;6.13;;;5.20;;
1719;SDS011;857;52.872;9.692;2023-05-07T06:03:02;9.33;;;6.63;;
1719;SDS011;857;52.872;9.692;2023-05-07T06:05:30;6.03;;;5.07;;
1719;SDS011;857;52.872;9.692;2023-05-07T06:07:58;7.37;;;5.40;;
1719;SDS011;857;52.872;9.692;2023-05-07T06:10:31;7.43;;;5.20;;
1719;SDS011;857;52.872;9.692;2023-05-07T06:12:59;3.50;;;2.93;;
1719;SDS011;857;52.872;9.692;2023-05-07T06:15:28;5.90;;;4.43;;
1719;SDS011;857;52.872;9.692;2023-05-07T06:18:01;7.47;;;5.73;;
1719;SDS011;857;52.872;9.692;2023-05-07T06:20:28;6.17;;;5.00;;
1719;SDS011;857;52.872;9.692;2023-05-07T06:22:58;3.97;;;3.57;;
1719;SDS011;857;52.872;9.692;2023-05-07T06:25:26;7.43;;;5.80;;
1719;SDS011;857;52.872;9.692;2023-05-07T06:27:55;4.87;;;4.37;;
1719;SDS011;857;52.872;9.692;2023-05-07T06:30:24;3.67;;;3.30;;
1719;SDS011;857;52.872;9.692;2023-05-07T06:32:53;6.63;;;5.93;;
1719;SDS011;857;52.872;9.692;2023-05-07T06:35:21;6.80;;;5.67;;
1719;SDS011;857;52.872;9.692;2023-05-07T06:37:48;4.20;;;3.60;;
1719;SDS011;857;52.872;9.692;2023-05-07T06:40:21;6.67;;;5.40;;
1719;SDS011;857;52.872;9.692;2023-05-07T06:42:48;6.20;;;4.97;;
1719;SDS011;857;52.872;9.692;2023-05-07T06:45:24;7.33;;;6.20;;
1719;SDS011;857;52.872;9.692;2023-05-07T06:47:54;6.30;;;5.07;;
1719;SDS011;857;52.872;9.692;2023-05-07T06:50:23;4.30;;;3.83;;
1719;SDS011;857;52.872;9.692;2023-05-07T06:52:55;8.17;;;5.77;;
1719;SDS011;857;52.872;9.692;2023-05-07T06:55:22;7.47;;;6.30;;
1719;SDS011;857;52.872;9.692;2023-05-07T06:57:50;5.63;;;4.40;;
1719;SDS011;857;52.872;9.692;2023-05-07T07:00:19;7.67;;;6.20;;
1719;SDS011;857;52.872;9.692;2023-05-07T07:02:53;7.53;;;6.07;;
1719;SDS011;857;52.872;9.692;2023-05-07T07:05:24;8.87;;;6.53;;
1719;SDS011;857;52.872;9.692;2023-05-07T07:07:52;6.93;;;5.27;;
1719;SDS011;857;52.872;9.692;2023-05-07T07:10:20;7.53;;;5.10;;
1719;SDS011;857;52.872;9.692;2023-05-07T07:12:49;5.53;;;4.00;;
1719;SDS011;857;52.872;9.692;2023-05-07T07:15:19;6.00;;;4.30;;
1719;SDS011;857;52.872;9.692;2023-05-07T07:17:48;9.43;;;6.73;;
1719;SDS011;857;52.872;9.692;2023-05-07T07:20:17;5.17;;;4.67;;
1719;SDS011;857;52.872;9.692;2023-05-07T07:22:46;4.20;;;3.80;;
1719;SDS011;857;52.872;9.692;2023-05-07T07:25:15;8.63;;;6.30;;
1719;SDS011;857;52.872;9.692;2023-05-07T07:27:43;6.90;;;4.90;;
1719;SDS011;857;52.872;9.692;2023-05-07T07:30:12;8.10;;;7.10;;
1719;SDS011;857;52.872;9.692;2023-05-07T07:32:44;8.73;;;5.80;;
1719;SDS011;857;52.872;9.692;2023-05-07T07:35:12;9.60;;;7.33;;
1719;SDS011;857;52.872;9.692;2023-05-07T07:37:41;5.97;;;4.77;;
1719;SDS011;857;52.872;9.692;2023-05-07T07:40:09;7.97;;;6.30;;
1719;SDS011;857;52.872;9.692;2023-05-07T07:42:37;7.67;;;5.70;;
1719;SDS011;857;52.872;9.692;2023-05-07T07:45:06;7.87;;;5.97;;
1719;SDS011;857;52.872;9.692;2023-05-07T07:47:38;4.20;;;3.80;;
1719;SDS011;857;52.872;9.692;2023-05-07T07:50:06;4.47;;;3.77;;
1719;SDS011;857;52.872;9.692;2023-05-07T07:55:25;6.73;;;5.40;;
1719;SDS011;857;52.872;9.692;2023-05-07T07:57:54;10.70;;;7.63;;
1719;SDS011;857;52.872;9.692;2023-05-07T08:00:23;10.50;;;8.07;;
1719;SDS011;857;52.872;9.692;2023-05-07T08:02:54;5.30;;;3.80;;
1719;SDS011;857;52.872;9.692;2023-05-07T08:05:27;3.63;;;3.33;;
1719;SDS011;857;52.872;9.692;2023-05-07T08:07:55;7.10;;;5.00;;
1719;SDS011;857;52.872;9.692;2023-05-07T08:10:29;9.40;;;6.90;;
1719;SDS011;857;52.872;9.692;2023-05-07T08:13:04;8.20;;;6.77;;
1719;SDS011;857;52.872;9.692;2023-05-07T08:15:34;7.57;;;5.60;;
1719;SDS011;857;52.872;9.692;2023-05-07T08:18:03;9.23;;;6.80;;
1719;SDS011;857;52.872;9.692;2023-05-07T08:20:31;4.93;;;4.33;;
1719;SDS011;857;52.872;9.692;2023-05-07T08:23:05;7.33;;;5.90;;
1719;SDS011;857;52.872;9.692;2023-05-07T08:25:34;8.40;;;5.97;;
1719;SDS011;857;52.872;9.692;2023-05-07T08:28:03;4.23;;;3.83;;
1719;SDS011;857;52.872;9.692;2023-05-07T08:30:31;9.57;;;7.30;;
1719;SDS011;857;52.872;9.692;2023-05-07T08:32:59;11.07;;;8.30;;
1719;SDS011;857;52.872;9.692;2023-05-07T08:35:27;6.13;;;4.83;;
1719;SDS011;857;52.872;9.692;2023-05-07T08:37:55;9.77;;;7.30;;
1719;SDS011;857;52.872;9.692;2023-05-07T08:40:24;10.73;;;7.30;;
1719;SDS011;857;52.872;9.692;2023-05-07T08:42:55;7.93;;;6.63;;
1719;SDS011;857;52.872;9.692;2023-05-07T08:45:23;4.00;;;3.53;;
1719;SDS011;857;52.872;9.692;2023-05-07T08:47:54;5.93;;;4.40;;
1719;SDS011;857;52.872;9.692;2023-05-07T08:50:24;7.50;;;5.13;;
1719;SDS011;857;52.872;9.692;2023-05-07T08:52:54;8.90;;;6.83;;
1719;SDS011;857;52.872;9.692;2023-05-07T08:55:51;8.83;;;6.10;;
1719;SDS011;857;52.872;9.692;2023-05-07T08:58:21;7.37;;;5.83;;
1719;SDS011;857;52.872;9.692;2023-05-07T09:00:49;5.10;;;4.23;;
1719;SDS011;857;52.872;9.692;2023-05-07T09:03:20;9.17;;;6.87;;
1719;SDS011;857;52.872;9.692;2023-05-07T09:05:51;8.20;;;6.40;;
1719;SDS011;857;52.872;9.692;2023-05-07T09:08:23;5.83;;;4.20;;
1719;SDS011;857;52.872;9.692;2023-05-07T09:10:52;6.47;;;5.10;;
1719;SDS011;857;52.872;9.692;2023-05-07T09:13:22;8.10;;;6.33;;
1719;SDS011;857;52.872;9.692;2023-05-07T09:18:43;8.90;;;6.90;;
1719;SDS011;857;52.872;9.692;2023-05-07T09:21:14;6.53;;;4.10;;
1719;SDS011;857;52.872;9.692;2023-05-07T09:23:44;5.33;;;4.47;;
1719;SDS011;857;52.872;9.692;2023-05-07T09:26:13;6.43;;;5.30;;
1719;SDS011;857;52.872;9.692;2023-05-07T09:28:43;7.30;;;5.67;;
1719;SDS011;857;52.872;9.692;2023-05-07T09:31:12;4.97;;;4.30;;
1719;SDS011;857;52.872;9.692;2023-05-07T09:33:41;9.00;;;6.47;;
1719;SDS011;857;52.872;9.692;2023-05-07T09:36:10;6.77;;;5.40;;
1719;SDS011;857;52.872;9.692;2023-05-07T09:38:40;8.73;;;6.47;;
1719;SDS011;857;52.872;9.692;2023-05-07T09:41:08;7.37;;;6.57;;
1719;SDS011;857;52.872;9.692;2023-05-07T09:43:53;9.13;;;7.00;;
1719;SDS011;857;52.872;9.692;2023-05-07T09:46:28;6.43;;;5.63;;
1719;SDS011;857;52.872;9.692;2023-05-07T09:48:59;9.63;;;6.67;;
1719;SDS011;857;52.872;9.692;2023-05-07T09:51:33;9.53;;;6.60;;
1719;SDS011;857;52.872;9.692;2023-05-07T09:54:03;7.73;;;5.50;;
1719;SDS011;857;52.872;9.692;2023-05-07T09:56:34;5.30;;;4.80;;
1719;SDS011;857;52.872;9.692;2023-05-07T09:59:06;6.17;;;4.90;;
1719;SDS011;857;52.872;9.692;2023-05-07T10:01:35;7.90;;;6.43;;
1719;SDS011;857;52.872;9.692;2023-05-07T10:04:03;4.60;;;4.10;;
1719;SDS011;857;52.872;9.692;2023-05-07T10:06:34;8.40;;;6.27;;
1719;SDS011;857;52.872;9.692;2023-05-07T10:09:12;4.90;;;4.37;;
1719;SDS011;857;52.872;9.692;2023-05-07T10:11:40;7.37;;;6.40;;
1719;SDS011;857;52.872;9.692;2023-05-07T10:14:09;6.57;;;5.77;;
1719;SDS011;857;52.872;9.692;2023-05-07T10:16:39;8.20;;;6.13;;
1719;SDS011;857;52.872;9.692;2023-05-07T10:19:12;5.00;;;4.00;;
1719;SDS011;857;52.872;9.692;2023-05-07T10:21:44;8.90;;;6.80;;
1719;SDS011;857;52.872;9.692;2023-05-07T10:24:13;7.83;;;6.57;;
1719;SDS011;857;52.872;9.692;2023-05-07T10:26:44;6.50;;;5.50;;
1719;SDS011;857;52.872;9.692;2023-05-07T10:29:15;5.23;;;4.70;;
1719;SDS011;857;52.872;9.692;2023-05-07T10:31:57;5.90;;;5.30;;
1719;SDS011;857;52.872;9.692;2023-05-07T10:34:29;4.47;;;4.03;;
1719;SDS011;857;52.872;9.692;2023-05-07T10:36:57;5.80;;;4.77;;
1719;SDS011;857;52.872;9.692;2023-05-07T10:39:25;5.20;;;4.70;;
1719;SDS011;857;52.872;9.692;2023-05-07T10:41:53;6.50;;;5.57;;
1719;SDS011;857;52.872;9.692;2023-05-07T10:44:27;3.80;;;3.47;;
1719;SDS011;857;52.872;9.692;2023-05-07T10:47:04;6.03;;;5.30;;
1719;SDS011;857;52.872;9.692;2023-05-07T10:49:35;7.13;;;6.43;;
1719;SDS011;857;52.872;9.692;2023-05-07T10:52:14;7.00;;;6.10;;
1719;SDS011;857;52.872;9.692;2023-05-07T10:55:18;7.47;;;5.20;;
1719;SDS011;857;52.872;9.692;2023-05-07T10:57:50;6.53;;;5.80;;
1719;SDS011;857;52.872;9.692;2023-05-07T11:00:44;7.20;;;5.67;;
1719;SDS011;857;52.872;9.692;2023-05-07T11:03:20;5.40;;;4.90;;
1719;SDS011;857;52.872;9.692;2023-05-07T11:06:09;6.67;;;5.00;;
1719;SDS011;857;52.872;9.692;2023-05-07T11:08:54;6.63;;;5.60;;
1719;SDS011;857;52.872;9.692;2023-05-07T11:11:46;5.23;;;4.73;;
1719;SDS011;857;52.872;9.692;2023-05-07T11:17:15;8.00;;;5.97;;
1719;SDS011;857;52.872;9.692;2023-05-07T11:19:49;4.87;;;4.43;;
1719;SDS011;857;52.872;9.692;2023-05-07T11:22:36;4.10;;;3.70;;
1719;SDS011;857;52.872;9.692;2023-05-07T11:25:17;5.77;;;5.10;;
1719;SDS011;857;52.872;9.692;2023-05-07T11:27:50;3.93;;;3.57;;
1719;SDS011;857;52.872;9.692;2023-05-07T11:30:24;5.63;;;4.67;;
1719;SDS011;857;52.872;9.692;2023-05-07T11:32:53;6.50;;;5.23;;
1719;SDS011;857;52.872;9.692;2023-05-07T11:35:22;5.10;;;4.60;;
1719;SDS011;857;52.872;9.692;2023-05-07T11:37:57;5.80;;;4.97;;
1719;SDS011;857;52.872;9.692;2023-05-07T11:40:25;7.37;;;5.70;;
1719;SDS011;857;52.872;9.692;2023-05-07T11:42:54;5.87;;;5.10;;
1719;SDS011;857;52.872;9.692;2023-05-07T11:45:22;4.80;;;4.30;;
1719;SDS011;857;52.872;9.692;2023-05-07T11:47:50;5.73;;;5.13;;
1719;SDS011;857;52.872;9.692;2023-05-07T11:50:20;5.50;;;5.00;;
1719;SDS011;857;52.872;9.692;2023-05-07T11:52:50;6.87;;;6.17;;
1719;SDS011;857;52.872;9.692;2023-05-07T11:55:18;5.00;;;4.47;;
1719;SDS011;857;52.872;9.692;2023-05-07T11:57:47;5.63;;;5.13;;
1719;SDS011;857;52.872;9.692;2023-05-07T12:00:15;5.57;;;4.60;;
1719;SDS011;857;52.872;9.692;2023-05-07T12:02:46;4.80;;;3.83;;
1719;SDS011;857;52.872;9.692;2023-05-07T12:05:14;6.03;;;5.40;;
1719;SDS011;857;52.872;9.692;2023-05-07T12:07:43;4.07;;;3.67;;
1719;SDS011;857;52.872;9.692;2023-05-07T12:10:11;4.43;;;4.03;;
1719;SDS011;857;52.872;9.692;2023-05-07T12:12:39;6.40;;;5.80;;
1719;SDS011;857;52.872;9.692;2023-05-07T12:15:07;4.80;;;4.13;;
1719;SDS011;857;52.872;9.692;2023-05-07T12:17:35;6.40;;;5.80;;
1719;SDS011;857;52.872;9.692;2023-05-07T12:20:04;7.20;;;6.50;;
1719;SDS011;857;52.872;9.692;2023-05-07T12:22:31;5.70;;;4.50;;
1719;SDS011;857;52.872;9.692;2023-05-07T12:25:01;6.53;;;5.87;;
1719;SDS011;857;52.872;9.692;2023-05-07T12:27:29;4.20;;;3.80;;
1719;SDS011;857;52.872;9.692;2023-05-07T12:29:57;4.93;;;4.43;;
1719;SDS011;857;52.872;9.692;2023-05-07T12:32:26;5.50;;;5.00;;
1719;SDS011;857;52.872;9.692;2023-05-07T12:34:53;8.10;;;6.90;;
1719;SDS011;857;52.872;9.692;2023-05-07T12:37:24;7.07;;;6.23;;
1719;SDS011;857;52.872;9.692;2023-05-07T12:40:04;6.87;;;6.17;;
1719;SDS011;857;52.872;9.692;2023-05-07T12:42:33;7.03;;;6.40;;
1719;SDS011;857;52.872;9.692;2023-05-07T12:45:07;6.63;;;5.93;;
1719;SDS011;857;52.872;9.692;2023-05-07T12:47:35;5.27;;;4.77;;
1719;SDS011;857;52.872;9.692;2023-05-07T12:50:04;5.87;;;5.27;;
1719;SDS011;857;52.872;9.692;2023-05-07T12:52:33;6.23;;;5.60;;
1719;SDS011;857;52.872;9.692;2023-05-07T12:55:05;6.93;;;6.10;;
1719;SDS011;857;52.872;9.692;2023-05-07T12:57:37;5.37;;;4.87;;
1719;SDS011;857;52.872;9.692;2023-05-07T13:00:05;7.10;;;6.40;;
1719;SDS011;857;52.872;9.692;2023-05-07T13:02:34;7.33;;;6.00;;
1719;SDS011;857;52.872;9.692;2023-05-07T13:05:05;6.00;;;5.40;;
1719;SDS011;857;52.872;9.692;2023-05-07T13:07:32;5.33;;;4.67;;
1719;SDS011;857;52.872;9.692;2023-05-07T13:10:00;7.40;;;6.67;;
1719;SDS011;857;52.872;9.692;2023-05-07T13:12:29;4.80;;;3.77;;
1719;SDS011;857;52.872;9.692;2023-05-07T13:14:57;5.17;;;4.40;;
1719;SDS011;857;52.872;9.692;2023-05-07T13:17:25;6.47;;;5.37;;
1719;SDS011;857;52.872;9.692;2023-05-07T13:19:52;6.50;;;5.90;;
1719;SDS011;857;52.872;9.692;2023-05-07T13:22:20;7.20;;;5.40;;
1719;SDS011;857;52.872;9.692;2023-05-07T13:24:48;7.17;;;6.47;;
1719;SDS011;857;52.872;9.692;2023-05-07T13:27:16;7.10;;;6.40;;
1719;SDS011;857;52.872;9.692;2023-05-07T13:29:46;5.20;;;4.27;;
1719;SDS011;857;52.872;9.692;2023-05-07T13:32:13;5.80;;;5.00;;
1719;SDS011;857;52.872;9.692;2023-05-07T13:34:41;5.23;;;4.73;;
1719;SDS011;857;52.872;9.692;2023-05-07T13:37:12;4.93;;;4.47;;
1719;SDS011;857;52.872;9.692;2023-05-07T13:39:45;4.50;;;4.03;;
1719;SDS011;857;52.872;9.692;2023-05-07T13:42:13;7.93;;;6.53;;
1719;SDS011;857;52.872;9.692;2023-05-07T13:44:41;6.73;;;4.47;;
1719;SDS011;857;52.872;9.692;2023-05-07T13:47:10;5.27;;;4.77;;
1719;SDS011;857;52.872;9.692;2023-05-07T13:49:38;5.50;;;5.00;;
1719;SDS011;857;52.872;9.692;2023-05-07T13:52:06;7.27;;;6.50;;
1719;SDS011;857;52.872;9.692;2023-05-07T13:57:38;4.60;;;4.20;;
1719;SDS011;857;52.872;9.692;2023-05-07T14:00:11;7.03;;;5.53;;
1719;SDS011;857;52.872;9.692;2023-05-07T14:02:43;4.77;;;4.37;;
1719;SDS011;857;52.872;9.692;2023-05-07T14:05:11;7.67;;;6.63;;
1719;SDS011;857;52.872;9.692;2023-05-07T14:07:39;4.37;;;3.97;;
1719;SDS011;857;52.872;9.692;2023-05-07T14:10:06;7.07;;;5.80;;
1719;SDS011;857;52.872;9.692;2023-05-07T14:12:35;7.50;;;6.17;;
1719;SDS011;857;52.872;9.692;2023-05-07T14:15:03;4.27;;;3.87;;
1719;SDS011;857;52.872;9.692;2023-05-07T14:24:42;5.40;;;4.90;;
1719;SDS011;857;52.872;9.692;2023-05-07T14:27:50;3.97;;;3.57;;
1719;SDS011;857;52.872;9.692;2023-05-07T14:30:22;4.97;;;4.47;;
1719;SDS011;857;52.872;9.692;2023-05-07T14:32:57;6.70;;;6.00;;
1719;SDS011;857;52.872;9.692;2023-05-07T14:35:25;6.13;;;5.10;;
1719;SDS011;857;52.872;9.692;2023-05-07T14:37:52;5.53;;;5.00;;
1719;SDS011;857;52.872;9.692;2023-05-07T14:40:22;5.57;;;5.07;;
1719;SDS011;857;52.872;9.692;2023-05-07T14:42:50;5.80;;;5.30;;
1719;SDS011;857;52.872;9.692;2023-05-07T14:45:18;9.93;;;6.50;;
1719;SDS011;857;52.872;9.692;2023-05-07T14:47:45;6.83;;;6.23;;
1719;SDS011;857;52.872;9.692;2023-05-07T14:50:13;7.07;;;6.30;;
1719;SDS011;857;52.872;9.692;2023-05-07T14:52:41;6.23;;;5.57;;
1719;SDS011;857;52.872;9.692;2023-05-07T14:55:09;5.17;;;4.67;;
1719;SDS011;857;52.872;9.692;2023-05-07T14:57:38;7.20;;;4.30;;
1719;SDS011;857;52.872;9.692;2023-05-07T15:00:06;4.53;;;4.13;;
1719;SDS011;857;52.872;9.692;2023-05-07T15:02:34;4.63;;;3.90;;
1719;SDS011;857;52.872;9.692;2023-05-07T15:05:02;6.60;;;5.73;;
1719;SDS011;857;52.872;9.692;2023-05-07T15:07:29;3.80;;;3.47;;
1719;SDS011;857;52.872;9.692;2023-05-07T15:10:01;5.43;;;4.97;;
1719;SDS011;857;52.872;9.692;2023-05-07T15:12:57;4.27;;;3.87;;
1719;SDS011;857;52.872;9.692;2023-05-07T15:15:24;4.90;;;4.30;;
1719;SDS011;857;52.872;9.692;2023-05-07T15:17:53;5.70;;;5.00;;
1719;SDS011;857;52.872;9.692;2023-05-07T15:20:21;6.30;;;5.70;;
1719;SDS011;857;52.872;9.692;2023-05-07T15:22:49;5.73;;;5.20;;
1719;SDS011;857;52.872;9.692;2023-05-07T15:25:16;5.87;;;5.27;;
1719;SDS011;857;52.872;9.692;2023-05-07T15:27:44;4.40;;;4.00;;
1719;SDS011;857;52.872;9.692;2023-05-07T15:30:14;4.70;;;4.27;;
1719;SDS011;857;52.872;9.692;2023-05-07T15:32:41;4.27;;;3.87;;
1719;SDS011;857;52.872;9.692;2023-05-07T15:35:09;5.30;;;4.80;;
1719;SDS011;857;52.872;9.692;2023-05-07T15:37:37;4.90;;;4.50;;
1719;SDS011;857;52.872;9.692;2023-05-07T15:40:05;5.23;;;4.53;;
1719;SDS011;857;52.872;9.692;2023-05-07T15:42:33;4.93;;;4.50;;
1719;SDS011;857;52.872;9.692;2023-05-07T15:45:01;4.60;;;4.30;;
1719;SDS011;857;52.872;9.692;2023-05-07T15:47:30;4.60;;;4.20;;
1719;SDS011;857;52.872;9.692;2023-05-07T15:49:59;4.20;;;3.80;;
1719;SDS011;857;52.872;9.692;2023-05-07T15:52:27;5.20;;;4.80;;
1719;SDS011;857;52.872;9.692;2023-05-07T15:54:55;4.20;;;3.80;;
1719;SDS011;857;52.872;9.692;2023-05-07T15:57:22;4.70;;;4.30;;
1719;SDS011;857;52.872;9.692;2023-05-07T15:59:50;4.07;;;3.77;;
1719;SDS011;857;52.872;9.692;2023-05-07T16:02:18;4.97;;;4.50;;
1719;SDS011;857;52.872;9.692;2023-05-07T16:04:47;4.20;;;3.80;;